Terminal Aerodrome Forecast
Issued by NWS Goodland, KS

Home | Current Version | Previous Version | Text Only | Print | Product List | Glossary On
Versions: 1 2 3 4 5 6 7 8 9 10 11 12 13 14 15 16 17 18
000
FTUS43 KGLD 061737
TAFGLD
TAF
KGLD 061737Z 0618/0718 27006KT P6SM SCT250
     FM070400 13011KT 5SM -SN BKN035
     FM070600 08011KT 2SM -SN OVC025
     FM071000 05012G20KT 1 1/2SM -SN BLSN OVC015=

USA.gov is the U.S. government's official web portal to all federal, state and local government web resources and services.